Time;durP1;ratioP1;P1;durP2;ratioP2;P2;SDS_P1;SDS_P2;PMS_P1;PMS_P2;Temp;Humidity;BMP_temperature;BMP_pressure;BME280_temperature;BME280_humidity;BME280_pressure;Samples;Min_cycle;Max_cycle;Signal;HPM_P1;HPM_P2
2021/01/05 00:00:28;;;;;;;21.70;15.27;;;3.60;99.90;;;;;;4990469;28;20399;-73
2021/01/05 00:02:54;;;;;;;20.90;14.98;;;3.60;99.90;;;;;;4988826;28;20401;-72
2021/01/05 00:05:22;;;;;;;22.17;16.25;;;3.70;99.90;;;;;;4988078;28;20744;-72
2021/01/05 00:07:48;;;;;;;17.40;13.85;;;3.70;99.90;;;;;;4992990;28;20394;-72
2021/01/05 00:10:18;;;;;;;24.15;18.52;;;3.70;99.90;;;;;;4990153;28;20402;-73
2021/01/05 00:12:44;;;;;;;25.55;20.67;;;3.70;99.90;;;;;;4990962;28;20514;-73
2021/01/05 00:15:12;;;;;;;28.10;22.52;;;3.60;99.90;;;;;;4992701;28;20394;-73
2021/01/05 00:17:39;;;;;;;30.77;24.57;;;3.60;99.90;;;;;;4992943;28;20943;-73
2021/01/05 00:20:10;;;;;;;26.33;20.55;;;3.50;99.90;;;;;;4992630;28;20733;-73
2021/01/05 00:22:36;;;;;;;20.98;16.55;;;3.40;99.90;;;;;;4991629;28;20396;-72
2021/01/05 00:25:05;;;;;;;19.98;15.45;;;3.40;99.90;;;;;;4992871;28;20896;-72
2021/01/05 00:27:31;;;;;;;15.00;12.40;;;3.40;99.90;;;;;;4992076;28;20489;-73
2021/01/05 00:29:57;;;;;;;13.10;10.70;;;3.40;99.90;;;;;;4988245;28;20485;-72
2021/01/05 00:32:24;;;;;;;13.57;10.40;;;3.50;99.90;;;;;;4992251;28;20817;-72
2021/01/05 00:34:52;;;;;;;11.35;9.18;;;3.60;99.90;;;;;;4991371;28;20489;-72
2021/01/05 00:37:19;;;;;;;12.57;9.68;;;3.80;99.90;;;;;;4992406;28;20442;-73
2021/01/05 00:39:47;;;;;;;10.60;8.48;;;3.80;99.90;;;;;;4992333;28;20400;-73
2021/01/05 00:42:13;;;;;;;11.70;9.60;;;3.80;99.90;;;;;;4990851;28;20494;-72
2021/01/05 00:44:39;;;;;;;11.23;9.25;;;3.80;99.90;;;;;;4991967;28;20972;-73
2021/01/05 00:47:05;;;;;;;10.20;8.97;;;3.90;99.90;;;;;;4990254;28;20415;-73
2021/01/05 00:49:31;;;;;;;10.50;8.82;;;4.00;99.90;;;;;;4992229;28;20894;-73
2021/01/05 00:51:58;;;;;;;11.73;9.90;;;3.90;99.90;;;;;;4991551;28;20439;-73
2021/01/05 00:54:24;;;;;;;10.52;8.90;;;3.90;99.90;;;;;;4992304;28;20402;-73
2021/01/05 00:57:01;;;;;;;10.80;9.68;;;3.90;99.90;;;;;;4992361;28;20397;-73
2021/01/05 00:59:27;;;;;;;11.82;9.93;;;3.90;99.90;;;;;;4992091;28;20527;-73
2021/01/05 01:01:54;;;;;;;18.30;13.48;;;3.90;99.90;;;;;;4986328;28;20402;-73
2021/01/05 01:04:20;;;;;;;18.17;13.50;;;3.70;99.90;;;;;;4990658;28;20437;-72
2021/01/05 01:06:45;;;;;;;19.33;14.77;;;3.60;99.90;;;;;;4992317;28;20882;-72
2021/01/05 01:09:12;;;;;;;16.63;13.30;;;3.50;99.90;;;;;;4989605;28;20406;-73
2021/01/05 01:11:38;;;;;;;12.40;10.40;;;3.40;99.90;;;;;;4988306;28;20445;-73
2021/01/05 01:14:04;;;;;;;14.33;11.07;;;3.60;99.90;;;;;;4987092;28;20984;-72
2021/01/05 01:16:30;;;;;;;13.63;10.70;;;3.60;99.90;;;;;;4987391;28;20497;-72
2021/01/05 01:18:56;;;;;;;14.68;11.15;;;3.70;99.90;;;;;;4985896;28;20406;-73
2021/01/05 01:21:22;;;;;;;12.02;9.82;;;3.70;99.90;;;;;;4992264;28;20398;-73
2021/01/05 01:23:48;;;;;;;12.85;10.25;;;3.70;99.90;;;;;;4992031;28;20398;-73
2021/01/05 01:26:15;;;;;;;13.07;10.57;;;3.80;99.90;;;;;;4990973;28;20460;-73
2021/01/05 01:28:43;;;;;;;14.40;11.18;;;3.80;99.90;;;;;;4991933;28;20412;-73
2021/01/05 01:31:09;;;;;;;14.37;11.13;;;3.80;99.90;;;;;;4992183;28;20778;-73
2021/01/05 01:33:35;;;;;;;13.07;10.90;;;3.80;99.90;;;;;;4990501;28;20433;-73
2021/01/05 01:36:01;;;;;;;15.13;11.90;;;3.70;99.90;;;;;;4991093;28;20759;-73
2021/01/05 01:38:27;;;;;;;13.73;10.70;;;3.80;99.90;;;;;;4991703;28;20390;-73
2021/01/05 01:40:52;;;;;;;13.13;10.57;;;3.80;99.90;;;;;;4987060;28;20399;-73
2021/01/05 01:43:19;;;;;;;12.00;9.77;;;3.80;99.90;;;;;;4991840;28;20874;-73
2021/01/05 01:45:45;;;;;;;11.55;9.40;;;3.90;99.90;;;;;;4988090;28;20398;-73
2021/01/05 01:48:11;;;;;;;11.32;9.85;;;3.90;99.90;;;;;;4990660;28;20425;-73
2021/01/05 01:50:37;;;;;;;12.90;10.82;;;3.90;99.90;;;;;;4990707;28;20517;-73
2021/01/05 01:53:33;;;;;;;12.13;9.68;;;3.80;99.90;;;;;;4989120;28;20895;-73
2021/01/05 01:56:26;;;;;;;10.88;9.23;;;3.70;99.90;;;;;;4988000;28;20414;-73
2021/01/05 01:59:05;;;;;;;10.65;9.02;;;3.80;99.90;;;;;;4992596;28;20943;-73
2021/01/05 02:01:44;;;;;;;11.87;10.10;;;3.60;99.90;;;;;;4993290;28;20403;-73
2021/01/05 02:04:44;;;;;;;11.90;10.32;;;3.60;99.90;;;;;;4992201;28;20472;-73
2021/01/05 02:07:35;;;;;;;13.45;10.85;;;3.60;99.90;;;;;;4988035;28;20477;-73
2021/01/05 02:10:27;;;;;;;16.20;12.82;;;3.60;99.90;;;;;;4993665;28;20394;-73
2021/01/05 02:13:17;;;;;;;13.68;10.80;;;3.50;99.90;;;;;;4993425;28;20509;-73
2021/01/05 02:16:03;;;;;;;12.57;10.63;;;3.40;99.90;;;;;;4989535;28;20449;-73
2021/01/05 02:18:40;;;;;;;17.33;12.73;;;3.40;99.90;;;;;;5007979;28;20526;-73
2021/01/05 02:21:14;;;;;;;23.50;16.65;;;3.20;99.90;;;;;;4989812;28;20405;-73
2021/01/05 02:23:52;;;;;;;19.23;13.40;;;3.10;99.90;;;;;;4991073;28;20438;-73
2021/01/05 02:26:23;;;;;;;15.70;12.38;;;3.10;99.90;;;;;;4994730;28;20401;-73
2021/01/05 02:28:51;;;;;;;14.45;11.15;;;3.20;99.90;;;;;;4991653;28;20990;-73
2021/01/05 02:31:44;;;;;;;15.60;11.38;;;3.20;99.90;;;;;;4984932;28;20453;-73
2021/01/05 02:34:21;;;;;;;11.65;9.48;;;3.30;99.90;;;;;;4988836;28;20401;-73
2021/01/05 02:36:59;;;;;;;12.43;10.23;;;3.50;99.90;;;;;;4993097;28;20429;-73
2021/01/05 02:39:49;;;;;;;17.75;13.70;;;3.40;99.90;;;;;;4990285;28;20510;-73
2021/01/05 02:42:44;;;;;;;13.73;11.52;;;3.30;99.90;;;;;;4987666;28;20404;-73
2021/01/05 02:45:15;;;;;;;14.00;11.38;;;3.20;99.90;;;;;;4988126;28;20411;-72
2021/01/05 02:48:00;;;;;;;13.93;11.05;;;3.30;99.90;;;;;;4991527;28;20535;-73
2021/01/05 02:51:10;;;;;;;12.50;10.20;;;3.30;99.90;;;;;;4992781;28;20444;-73
2021/01/05 02:54:13;;;;;;;14.48;11.05;;;3.30;99.90;;;;;;4894626;29;20454;-73
2021/01/05 02:57:16;;;;;;;17.05;13.43;;;3.40;99.90;;;;;;4994427;28;20408;-73
2021/01/05 03:00:20;;;;;;;23.08;16.70;;;3.30;99.90;;;;;;4987673;28;20392;-73
2021/01/05 03:03:24;;;;;;;25.00;17.23;;;3.10;99.90;;;;;;5005276;28;20415;-73
2021/01/05 03:06:06;;;;;;;16.73;13.40;;;3.00;99.90;;;;;;4978760;28;20450;-73
2021/01/05 03:08:33;;;;;;;19.73;14.90;;;3.20;99.90;;;;;;4991870;28;20526;-73
2021/01/05 03:11:05;;;;;;;16.58;12.90;;;3.20;99.90;;;;;;4991231;28;20426;-73
2021/01/05 03:13:49;;;;;;;14.50;11.30;;;3.30;99.90;;;;;;4976592;28;20410;-73
2021/01/05 03:16:19;;;;;;;14.25;11.82;;;3.50;99.90;;;;;;4993856;28;20874;-73
2021/01/05 03:18:54;;;;;;;15.18;11.40;;;3.50;99.90;;;;;;4992159;28;20388;-73
2021/01/05 03:21:23;;;;;;;12.63;10.25;;;3.40;99.90;;;;;;4992764;28;20418;-73
2021/01/05 03:23:50;;;;;;;12.27;9.82;;;3.40;99.90;;;;;;4992351;28;20489;-73
2021/01/05 03:26:21;;;;;;;11.40;9.20;;;3.50;99.90;;;;;;4993712;28;20394;-73
2021/01/05 03:28:47;;;;;;;12.02;9.60;;;3.60;99.90;;;;;;4992247;28;20989;-73
2021/01/05 03:31:21;;;;;;;13.75;9.73;;;3.50;99.90;;;;;;4993585;28;20615;-73
2021/01/05 03:33:53;;;;;;;12.60;10.20;;;3.50;99.90;;;;;;4993201;28;20394;-73
2021/01/05 03:36:19;;;;;;;12.68;9.93;;;3.40;99.90;;;;;;4992360;28;20410;-73
2021/01/05 03:38:45;;;;;;;13.07;10.18;;;3.40;99.90;;;;;;4993205;28;20957;-73
2021/01/05 03:41:11;;;;;;;14.07;11.10;;;3.50;99.90;;;;;;4993468;28;20497;-73
2021/01/05 03:43:37;;;;;;;13.88;11.60;;;3.50;99.90;;;;;;4993494;28;20422;-73
2021/01/05 03:46:03;;;;;;;11.68;9.63;;;3.30;99.90;;;;;;4991488;28;20464;-73
2021/01/05 03:48:30;;;;;;;12.32;10.23;;;3.40;99.90;;;;;;4991732;28;20409;-73
2021/01/05 03:50:56;;;;;;;11.73;9.77;;;3.40;99.90;;;;;;4988740;28;20934;-73
2021/01/05 03:53:22;;;;;;;12.73;9.80;;;3.40;99.90;;;;;;4983335;28;20414;-73
2021/01/05 03:55:47;;;;;;;14.05;11.00;;;3.40;99.90;;;;;;4991323;28;20402;-73
2021/01/05 03:58:13;;;;;;;11.60;9.05;;;3.40;99.90;;;;;;4988340;28;20488;-73
2021/01/05 04:00:39;;;;;;;11.63;9.53;;;3.40;99.90;;;;;;4993210;28;20486;-73
2021/01/05 04:03:05;;;;;;;11.80;9.55;;;3.40;99.90;;;;;;4986945;28;20940;-73
2021/01/05 04:05:32;;;;;;;12.32;10.35;;;3.50;99.90;;;;;;4987040;28;20914;-73
2021/01/05 04:07:58;;;;;;;9.57;8.57;;;3.50;99.90;;;;;;4989883;28;20511;-73
2021/01/05 04:10:24;;;;;;;12.60;9.63;;;3.50;99.90;;;;;;4988878;28;20402;-73
2021/01/05 04:12:50;;;;;;;11.23;9.40;;;3.50;99.90;;;;;;4987752;28;20415;-73
2021/01/05 04:15:19;;;;;;;11.25;9.32;;;3.50;99.90;;;;;;4991400;28;20921;-73
2021/01/05 04:17:45;;;;;;;10.65;9.20;;;3.50;99.90;;;;;;4984835;28;20429;-73
2021/01/05 04:20:12;;;;;;;10.20;8.68;;;3.50;99.90;;;;;;4991189;28;20406;-73
2021/01/05 04:22:39;;;;;;;11.98;9.13;;;3.50;99.90;;;;;;4992789;28;20489;-73
2021/01/05 04:25:06;;;;;;;10.60;9.27;;;3.50;99.90;;;;;;4991145;28;20454;-73
2021/01/05 04:27:32;;;;;;;11.40;9.47;;;3.50;99.90;;;;;;4992400;28;20478;-72
2021/01/05 04:29:58;;;;;;;11.90;9.13;;;3.60;99.90;;;;;;4991507;28;20410;-73
2021/01/05 04:32:24;;;;;;;12.45;10.05;;;3.50;99.90;;;;;;4991193;28;20421;-73
2021/01/05 04:34:50;;;;;;;10.10;8.50;;;3.50;99.90;;;;;;4992392;28;20898;-73
2021/01/05 04:37:15;;;;;;;11.07;8.95;;;3.40;99.90;;;;;;4991957;28;20394;-73
2021/01/05 04:39:42;;;;;;;11.17;9.33;;;3.50;99.90;;;;;;4991245;28;20406;-73
2021/01/05 04:42:16;;;;;;;11.35;9.60;;;3.50;99.90;;;;;;4990354;28;20421;-73
2021/01/05 04:44:50;;;;;;;10.82;8.60;;;3.50;99.90;;;;;;4991980;28;20398;-73
2021/01/05 04:47:29;;;;;;;11.32;9.38;;;3.50;99.90;;;;;;4982474;28;20398;-73
2021/01/05 04:50:22;;;;;;;8.90;7.60;;;3.50;99.90;;;;;;5002645;28;20415;-73
2021/01/05 04:52:57;;;;;;;10.40;7.22;;;3.50;99.90;;;;;;4976896;28;20409;-73
2021/01/05 04:55:44;;;;;;;8.32;6.50;;;3.50;99.90;;;;;;4985901;28;20394;-73
2021/01/05 04:58:19;;;;;;;8.95;6.80;;;3.60;99.90;;;;;;4984881;28;20432;-73
2021/01/05 05:00:46;;;;;;;8.73;6.47;;;3.60;99.90;;;;;;4990994;28;20983;-73
2021/01/05 05:03:33;;;;;;;7.70;6.05;;;3.60;99.90;;;;;;4983950;28;20414;-73
2021/01/05 05:06:20;;;;;;;8.10;6.28;;;3.60;99.90;;;;;;4991232;28;20905;-73
2021/01/05 05:08:59;;;;;;;7.60;5.70;;;3.60;99.90;;;;;;4987984;28;20509;-73
2021/01/05 05:11:33;;;;;;;6.80;5.63;;;3.60;99.90;;;;;;4990716;28;20870;-73
2021/01/05 05:14:06;;;;;;;6.17;5.37;;;3.60;99.90;;;;;;4987842;28;20434;-73
2021/01/05 05:17:02;;;;;;;6.30;5.53;;;3.50;99.90;;;;;;4992393;28;20433;-73
2021/01/05 05:19:48;;;;;;;10.77;6.88;;;3.60;99.90;;;;;;4988282;28;20387;-73
2021/01/05 05:22:19;;;;;;;8.00;6.53;;;3.40;99.90;;;;;;4990981;28;20469;-73
2021/01/05 05:24:53;;;;;;;8.07;5.90;;;3.50;99.90;;;;;;4992371;28;20438;-73
2021/01/05 05:27:34;;;;;;;6.93;5.22;;;3.50;99.90;;;;;;4991920;28;20387;-72
2021/01/05 05:30:07;;;;;;;6.72;4.90;;;3.50;99.90;;;;;;4982559;28;20394;-73
2021/01/05 05:32:38;;;;;;;6.45;4.95;;;3.50;99.90;;;;;;4996026;28;20418;-72
2021/01/05 05:35:41;;;;;;;6.25;4.90;;;3.50;99.90;;;;;;4995917;28;20453;-73
2021/01/05 05:38:24;;;;;;;6.93;4.45;;;3.40;99.90;;;;;;4905372;29;20413;-72
2021/01/05 05:40:53;;;;;;;5.45;4.20;;;3.40;99.90;;;;;;4990631;28;20553;-72
2021/01/05 05:43:37;;;;;;;5.10;4.05;;;3.40;99.90;;;;;;4995747;28;20395;-72
2021/01/05 05:46:06;;;;;;;5.88;4.30;;;3.30;99.90;;;;;;4995381;28;20452;-73
2021/01/05 05:48:44;;;;;;;5.85;4.43;;;3.20;99.90;;;;;;4995655;28;20401;-73
2021/01/05 05:51:14;;;;;;;6.10;4.60;;;3.30;99.90;;;;;;4989379;28;20495;-72
2021/01/05 05:53:46;;;;;;;5.63;4.30;;;3.20;99.90;;;;;;4995885;28;20894;-72
2021/01/05 05:56:14;;;;;;;5.47;3.92;;;3.20;99.90;;;;;;4988874;28;20424;-73
2021/01/05 05:58:46;;;;;;;6.43;4.28;;;3.20;99.90;;;;;;4992571;28;20405;-73
2021/01/05 06:01:17;;;;;;;6.63;4.47;;;3.10;99.90;;;;;;4990969;28;20410;-72
2021/01/05 06:03:43;;;;;;;6.32;4.63;;;3.00;99.90;;;;;;5000525;28;20482;-73
2021/01/05 06:06:09;;;;;;;5.88;4.57;;;2.90;99.90;;;;;;4993915;28;20402;-73
2021/01/05 06:08:35;;;;;;;6.13;4.60;;;2.90;99.90;;;;;;4995127;28;20774;-73
2021/01/05 06:11:02;;;;;;;6.03;4.20;;;2.90;99.90;;;;;;4981155;28;20431;-73
2021/01/05 06:13:28;;;;;;;5.93;4.32;;;2.80;99.90;;;;;;4995038;28;20418;-73
2021/01/05 06:15:55;;;;;;;5.43;4.03;;;2.90;99.90;;;;;;4992897;28;20489;-73
2021/01/05 06:18:21;;;;;;;5.25;3.90;;;2.80;99.90;;;;;;4990034;28;20402;-73
2021/01/05 06:20:50;;;;;;;4.43;3.72;;;2.80;99.90;;;;;;4981297;28;20412;-73
2021/01/05 06:23:18;;;;;;;4.45;3.33;;;2.70;99.90;;;;;;4992584;28;20395;-73
2021/01/05 06:25:45;;;;;;;4.78;2.85;;;2.80;99.90;;;;;;4984398;28;21445;-73
2021/01/05 06:28:11;;;;;;;3.80;2.70;;;2.90;99.90;;;;;;4985115;28;20569;-73
2021/01/05 06:30:37;;;;;;;3.45;2.70;;;2.90;99.90;;;;;;4993123;28;20434;-73
2021/01/05 06:33:04;;;;;;;4.35;2.80;;;2.90;99.90;;;;;;4993589;28;20430;-73
2021/01/05 06:35:30;;;;;;;4.55;2.97;;;3.10;99.90;;;;;;4993428;28;20894;-73
2021/01/05 06:37:56;;;;;;;4.85;3.38;;;3.10;99.90;;;;;;4981708;28;21348;-73
2021/01/05 06:40:23;;;;;;;5.37;3.67;;;3.00;99.90;;;;;;4992137;28;20840;-73
2021/01/05 06:42:50;;;;;;;6.55;3.90;;;3.00;99.90;;;;;;4992578;28;20465;-73
2021/01/05 06:45:19;;;;;;;4.97;3.38;;;2.90;99.90;;;;;;4986257;28;20418;-73
2021/01/05 06:47:45;;;;;;;4.70;3.65;;;2.80;99.90;;;;;;4992112;28;20402;-73
2021/01/05 06:50:14;;;;;;;3.85;3.05;;;2.80;99.90;;;;;;4992614;28;20410;-73
2021/01/05 06:52:40;;;;;;;3.95;3.30;;;3.00;99.90;;;;;;4981539;28;20420;-73
2021/01/05 06:55:07;;;;;;;5.40;3.80;;;2.90;99.90;;;;;;4988282;28;20954;-73
2021/01/05 06:57:35;;;;;;;4.10;3.28;;;3.00;99.90;;;;;;4986680;28;20412;-73
2021/01/05 07:00:03;;;;;;;3.45;2.60;;;3.10;99.90;;;;;;4986446;28;20404;-73
2021/01/05 07:02:29;;;;;;;2.63;2.10;;;3.20;99.90;;;;;;4989249;28;20483;-73
2021/01/05 07:04:55;;;;;;;3.90;2.50;;;3.20;99.90;;;;;;4989805;28;20447;-73
2021/01/05 07:07:22;;;;;;;3.57;2.60;;;3.10;99.90;;;;;;4991605;28;20402;-73
2021/01/05 07:09:48;;;;;;;4.25;2.40;;;3.30;99.90;;;;;;4993280;28;20398;-73
2021/01/05 07:12:13;;;;;;;5.88;2.35;;;3.20;99.90;;;;;;4989828;28;20428;-73
2021/01/05 07:14:39;;;;;;;6.25;4.72;;;3.30;99.90;;;;;;4992123;28;20410;-73
2021/01/05 07:17:05;;;;;;;6.93;5.03;;;3.30;99.90;;;;;;4986956;28;20414;-73
2021/01/05 07:19:31;;;;;;;4.60;3.33;;;3.30;99.90;;;;;;4992810;28;20422;-73
2021/01/05 07:21:57;;;;;;;6.07;4.38;;;3.30;99.90;;;;;;4988167;28;20391;-73
2021/01/05 07:24:27;;;;;;;4.10;3.50;;;3.40;99.90;;;;;;4987542;28;20410;-73
2021/01/05 07:26:53;;;;;;;4.88;3.35;;;3.30;99.90;;;;;;4986264;28;20398;-73
2021/01/05 07:29:21;;;;;;;4.28;3.20;;;3.20;99.90;;;;;;4983079;28;20413;-73
2021/01/05 07:31:48;;;;;;;4.75;3.40;;;3.20;99.90;;;;;;4985240;28;20832;-73
2021/01/05 07:34:15;;;;;;;5.55;4.45;;;3.40;99.90;;;;;;4983793;28;20461;-73
2021/01/05 07:36:45;;;;;;;6.88;4.50;;;3.50;99.90;;;;;;4984847;28;20451;-73
2021/01/05 07:39:19;;;;;;;5.72;4.43;;;3.30;99.90;;;;;;4983084;28;20452;-73
2021/01/05 07:41:46;;;;;;;5.88;4.35;;;3.30;99.90;;;;;;4992564;28;20404;-73
2021/01/05 07:44:12;;;;;;;4.45;3.83;;;3.30;99.90;;;;;;4992881;28;20402;-73
2021/01/05 07:46:38;;;;;;;5.40;4.28;;;3.30;99.90;;;;;;4991922;28;20408;-73
2021/01/05 07:49:05;;;;;;;5.43;4.50;;;3.30;99.90;;;;;;4990429;28;20437;-73
2021/01/05 07:51:31;;;;;;;5.90;4.50;;;3.30;99.90;;;;;;4989285;28;20898;-73
2021/01/05 07:53:56;;;;;;;6.38;4.70;;;3.30;99.90;;;;;;4989275;28;20773;-73
2021/01/05 07:56:22;;;;;;;6.20;4.57;;;3.10;99.90;;;;;;4989206;28;20396;-73
2021/01/05 07:58:49;;;;;;;8.40;5.63;;;3.00;99.90;;;;;;4989024;28;20410;-73
2021/01/05 08:01:15;;;;;;;8.57;5.53;;;3.00;99.90;;;;;;4987521;28;20423;-73
2021/01/05 08:03:41;;;;;;;8.27;5.55;;;3.00;99.90;;;;;;4991027;28;20406;-73
2021/01/05 08:06:09;;;;;;;6.77;4.93;;;3.00;99.90;;;;;;4992136;28;20398;-72
2021/01/05 08:08:35;;;;;;;8.13;5.25;;;3.10;99.90;;;;;;4990968;28;20448;-72
2021/01/05 08:11:00;;;;;;;7.23;4.93;;;3.10;99.90;;;;;;4991977;28;20426;-73
2021/01/05 08:13:26;;;;;;;5.32;4.15;;;3.30;99.90;;;;;;4983246;28;20422;-72
2021/01/05 08:15:53;;;;;;;4.80;3.85;;;3.20;99.90;;;;;;4981143;28;20414;-72
2021/01/05 08:18:19;;;;;;;4.68;3.88;;;3.20;99.90;;;;;;4981880;28;20408;-72
2021/01/05 08:20:45;;;;;;;5.43;4.38;;;3.40;99.90;;;;;;4980826;28;20417;-73
2021/01/05 08:23:11;;;;;;;5.75;4.88;;;3.50;99.90;;;;;;4980347;28;20482;-72
2021/01/05 08:25:37;;;;;;;6.72;4.63;;;3.40;99.90;;;;;;4980037;28;20491;-72
2021/01/05 08:28:03;;;;;;;5.05;4.25;;;3.40;99.90;;;;;;4980826;28;20404;-73
2021/01/05 08:30:31;;;;;;;6.10;4.63;;;3.40;99.90;;;;;;4982984;28;20427;-72
2021/01/05 08:33:01;;;;;;;6.43;5.22;;;3.40;99.90;;;;;;4981827;28;20414;-72
2021/01/05 08:35:28;;;;;;;6.85;4.95;;;3.40;99.90;;;;;;4984374;28;20434;-72
2021/01/05 08:37:55;;;;;;;6.03;4.70;;;3.40;99.90;;;;;;4981792;28;20394;-72
2021/01/05 08:40:24;;;;;;;5.15;3.95;;;3.40;99.90;;;;;;4982006;28;20961;-72
2021/01/05 08:42:50;;;;;;;5.78;4.20;;;3.40;99.90;;;;;;4981726;28;20497;-73
2021/01/05 08:45:17;;;;;;;6.25;4.63;;;3.30;99.90;;;;;;4982098;28;20430;-72
2021/01/05 08:47:45;;;;;;;7.57;5.63;;;3.20;99.90;;;;;;4982632;28;20910;-73
2021/01/05 08:50:16;;;;;;;6.77;5.60;;;3.20;99.90;;;;;;4979572;28;20521;-73
2021/01/05 08:52:42;;;;;;;8.27;6.05;;;3.10;99.90;;;;;;4979511;28;20765;-73
2021/01/05 08:55:08;;;;;;;7.90;5.28;;;3.20;99.90;;;;;;4980718;28;20407;-73
2021/01/05 08:57:34;;;;;;;7.95;5.60;;;3.10;99.90;;;;;;4980164;28;20416;-72
2021/01/05 09:00:01;;;;;;;11.07;7.32;;;3.00;99.90;;;;;;4980127;28;20401;-72
2021/01/05 09:02:27;;;;;;;9.02;6.60;;;3.00;99.90;;;;;;4981409;28;20409;-72
2021/01/05 09:04:53;;;;;;;11.27;7.13;;;3.00;99.90;;;;;;4984109;28;20413;-72
2021/01/05 09:07:20;;;;;;;8.68;6.80;;;3.10;99.90;;;;;;4985297;28;20394;-72
2021/01/05 09:09:46;;;;;;;6.68;5.03;;;3.10;99.90;;;;;;4986475;28;20404;-72
2021/01/05 09:12:12;;;;;;;6.60;4.63;;;3.30;99.90;;;;;;4985845;28;20502;-72
2021/01/05 09:14:38;;;;;;;5.88;5.10;;;3.30;99.90;;;;;;4985344;28;20774;-73
2021/01/05 09:17:05;;;;;;;9.80;7.45;;;3.20;99.90;;;;;;4984151;28;20928;-74
2021/01/05 09:19:31;;;;;;;10.25;8.20;;;3.20;99.90;;;;;;4985085;28;20402;-72
2021/01/05 09:21:57;;;;;;;9.63;7.37;;;3.20;99.90;;;;;;4984715;28;20436;-73
2021/01/05 09:24:24;;;;;;;8.65;6.38;;;3.20;99.90;;;;;;4984013;28;20412;-72
2021/01/05 09:26:52;;;;;;;7.70;6.20;;;3.30;99.90;;;;;;4984563;28;20421;-74
2021/01/05 09:29:18;;;;;;;8.63;6.47;;;3.30;99.90;;;;;;4983953;28;20402;-73
2021/01/05 09:31:46;;;;;;;9.98;6.72;;;3.40;99.90;;;;;;4984219;28;20406;-73
2021/01/05 09:34:15;;;;;;;9.10;7.20;;;3.50;99.90;;;;;;4983989;28;20400;-73
2021/01/05 09:36:41;;;;;;;7.70;6.25;;;3.60;99.90;;;;;;4985071;28;20434;-73
2021/01/05 09:39:09;;;;;;;7.35;5.30;;;3.60;99.90;;;;;;4986293;28;20787;-73
2021/01/05 09:41:38;;;;;;;8.45;5.15;;;3.70;99.90;;;;;;4983898;28;20467;-72
2021/01/05 09:44:04;;;;;;;6.88;3.95;;;3.80;99.90;;;;;;4983070;28;20421;-72
2021/01/05 09:46:30;;;;;;;5.65;4.03;;;3.70;99.90;;;;;;4982569;28;20781;-73
2021/01/05 09:48:56;;;;;;;4.90;3.00;;;3.70;99.90;;;;;;4985205;28;20423;-73
2021/01/05 09:51:24;;;;;;;4.40;3.00;;;3.80;99.90;;;;;;4984199;28;20410;-73
2021/01/05 09:53:50;;;;;;;6.80;4.00;;;3.60;99.90;;;;;;4983630;28;20504;-73
2021/01/05 09:56:17;;;;;;;8.45;5.75;;;3.40;99.90;;;;;;4984626;28;20394;-73
2021/01/05 09:58:44;;;;;;;5.47;4.00;;;3.30;99.90;;;;;;4985329;28;20445;-73
2021/01/05 10:01:10;;;;;;;4.80;3.40;;;3.40;99.90;;;;;;4985084;28;20405;-73
2021/01/05 10:03:36;;;;;;;4.72;3.30;;;3.40;99.90;;;;;;4987290;28;20447;-74
2021/01/05 10:06:02;;;;;;;4.30;3.63;;;3.30;99.90;;;;;;4987060;28;20414;-74
2021/01/05 10:08:28;;;;;;;5.32;4.28;;;3.00;99.90;;;;;;4987519;28;20417;-74
2021/01/05 10:10:54;;;;;;;7.30;5.28;;;3.00;99.90;;;;;;4985363;28;20919;-73
2021/01/05 10:13:20;;;;;;;7.13;4.93;;;3.00;99.90;;;;;;4986380;28;20776;-73
2021/01/05 10:15:47;;;;;;;6.70;4.85;;;3.00;99.90;;;;;;4984433;28;20399;-74
2021/01/05 10:18:13;;;;;;;6.78;4.60;;;3.10;99.90;;;;;;4986607;28;20402;-73
2021/01/05 10:20:39;;;;;;;8.98;6.80;;;3.10;99.90;;;;;;4983126;28;20908;-72
2021/01/05 10:23:05;;;;;;;8.60;6.07;;;2.90;99.90;;;;;;4983143;28;20394;-73
2021/01/05 10:25:30;;;;;;;6.93;5.40;;;2.80;99.90;;;;;;4985581;28;20485;-73
2021/01/05 10:27:56;;;;;;;7.75;5.90;;;2.80;99.90;;;;;;4983365;28;20407;-73
2021/01/05 10:30:23;;;;;;;9.00;7.03;;;2.80;99.90;;;;;;4985482;28;20746;-72
2021/01/05 10:32:50;;;;;;;8.65;6.43;;;3.00;99.90;;;;;;4985911;28;20422;-72
2021/01/05 10:35:18;;;;;;;5.97;4.23;;;3.20;99.90;;;;;;4985119;28;20477;-73
2021/01/05 10:37:45;;;;;;;6.78;4.90;;;3.30;99.90;;;;;;4985659;28;20598;-73
2021/01/05 10:40:12;;;;;;;7.30;5.75;;;3.40;99.90;;;;;;4984083;28;20416;-73
2021/01/05 10:42:43;;;;;;;6.93;5.45;;;3.50;99.90;;;;;;4985731;28;20390;-73
2021/01/05 10:45:11;;;;;;;7.78;6.43;;;3.30;99.90;;;;;;4985779;28;20919;-72
2021/01/05 10:47:40;;;;;;;7.75;6.13;;;3.30;99.90;;;;;;4982379;28;20422;-73
2021/01/05 10:50:09;;;;;;;7.43;5.88;;;3.30;99.90;;;;;;4985335;28;20429;-73
2021/01/05 10:52:35;;;;;;;6.57;5.50;;;3.40;99.90;;;;;;4985928;28;20418;-72
2021/01/05 10:55:02;;;;;;;5.67;4.40;;;3.30;99.90;;;;;;4984810;28;20408;-72
2021/01/05 10:57:27;;;;;;;7.63;5.35;;;3.30;99.90;;;;;;4989348;28;20398;-72
2021/01/05 10:59:53;;;;;;;7.65;5.50;;;3.40;99.90;;;;;;4991666;28;20731;-73
2021/01/05 11:02:19;;;;;;;7.60;5.97;;;3.30;99.90;;;;;;4992947;28;20449;-72
2021/01/05 11:04:46;;;;;;;8.80;6.93;;;3.20;99.90;;;;;;4994449;28;20414;-72
2021/01/05 11:07:16;;;;;;;7.75;6.20;;;3.10;99.90;;;;;;4988809;28;20933;-72
2021/01/05 11:09:43;;;;;;;7.13;5.32;;;3.20;99.90;;;;;;4985651;28;20406;-72
2021/01/05 11:12:10;;;;;;;8.30;5.63;;;3.20;99.90;;;;;;4980790;28;21077;-72
2021/01/05 11:14:37;;;;;;;6.63;5.13;;;3.20;99.90;;;;;;4984137;28;20922;-72
2021/01/05 11:17:03;;;;;;;7.70;5.75;;;3.40;99.90;;;;;;4985802;28;20394;-72
2021/01/05 11:19:29;;;;;;;7.28;5.65;;;3.60;99.90;;;;;;4985784;28;20910;-72
2021/01/05 11:21:57;;;;;;;6.35;4.70;;;3.60;99.90;;;;;;4983657;28;20421;-72
2021/01/05 11:24:25;;;;;;;5.13;4.45;;;3.60;99.90;;;;;;4983792;28;20392;-73
2021/01/05 11:26:52;;;;;;;6.47;4.90;;;3.80;99.90;;;;;;4983883;28;20755;-73
2021/01/05 11:29:20;;;;;;;7.88;5.43;;;3.70;99.90;;;;;;4983698;28;20395;-73
2021/01/05 11:31:53;;;;;;;5.95;3.75;;;3.70;99.90;;;;;;4984262;28;20874;-72
2021/01/05 11:34:18;;;;;;;4.77;2.93;;;3.80;99.90;;;;;;4981923;28;20415;-72
2021/01/05 11:36:44;;;;;;;4.20;3.38;;;3.90;99.90;;;;;;4982363;28;20454;-73
2021/01/05 11:39:10;;;;;;;7.22;4.07;;;4.00;99.90;;;;;;4982423;28;20465;-73
2021/01/05 11:41:37;;;;;;;6.67;4.27;;;4.00;99.90;;;;;;4983523;28;20776;-73
2021/01/05 11:44:05;;;;;;;6.97;5.53;;;3.90;99.90;;;;;;4981898;28;20503;-73
2021/01/05 11:46:31;;;;;;;8.95;7.03;;;3.80;99.90;;;;;;4981405;28;20406;-72
2021/01/05 11:48:57;;;;;;;7.60;6.33;;;3.90;99.90;;;;;;4980000;28;21014;-73
2021/01/05 11:51:26;;;;;;;10.40;7.57;;;3.90;99.90;;;;;;4982078;28;20466;-73
2021/01/05 11:53:52;;;;;;;9.57;7.68;;;3.80;99.90;;;;;;4982592;28;20417;-73
2021/01/05 11:56:20;;;;;;;11.00;9.05;;;3.70;99.90;;;;;;4984682;28;20407;-72
2021/01/05 11:58:46;;;;;;;10.32;7.88;;;3.70;99.90;;;;;;4980188;28;20830;-73
2021/01/05 12:01:12;;;;;;;7.63;5.90;;;3.70;99.90;;;;;;4981295;28;20413;-73
2021/01/05 12:03:38;;;;;;;10.15;7.00;;;3.80;99.90;;;;;;4981301;28;20426;-73
2021/01/05 12:06:09;;;;;;;8.77;7.25;;;4.00;99.90;;;;;;4980320;28;20871;-73
2021/01/05 12:08:35;;;;;;;8.88;7.20;;;4.00;99.90;;;;;;4983714;28;20441;-73
2021/01/05 12:11:01;;;;;;;8.00;6.60;;;4.10;99.90;;;;;;4980574;28;20404;-73
2021/01/05 12:13:27;;;;;;;8.95;6.95;;;4.10;99.90;;;;;;4979192;28;20411;-72
2021/01/05 12:15:54;;;;;;;11.70;7.90;;;4.00;99.90;;;;;;4979887;28;20397;-72
2021/01/05 12:18:20;;;;;;;11.48;7.63;;;4.00;99.90;;;;;;4982478;28;20497;-72
2021/01/05 12:20:46;;;;;;;14.30;8.25;;;;;;;;;;4982753;28;20998;-73
2021/01/05 12:23:12;;;;;;;12.23;9.02;;;;;;;;;;4981084;28;20402;-72
2021/01/05 12:25:39;;;;;;;11.10;8.98;;;;;;;;;;4983302;28;20762;-72
2021/01/05 12:28:05;;;;;;;13.20;9.50;;;;;;;;;;4984352;28;20505;-73
2021/01/05 12:30:31;;;;;;;14.27;10.77;;;;;;;;;;4985178;28;20940;-73
2021/01/05 12:32:59;;;;;;;13.10;9.80;;;;;;;;;;4984090;28;20473;-73
2021/01/05 12:35:25;;;;;;;13.10;10.25;;;;;;;;;;4983984;28;20783;-72
2021/01/05 12:37:51;;;;;;;10.33;8.10;;;4.20;99.90;;;;;;4981747;28;20412;-73
2021/01/05 12:40:16;;;;;;;9.52;7.38;;;4.30;99.90;;;;;;4981803;28;20409;-73
2021/01/05 12:42:42;;;;;;;8.18;5.82;;;4.40;99.90;;;;;;4983228;28;20445;-72
2021/01/05 12:45:09;;;;;;;8.60;6.10;;;4.60;99.90;;;;;;4981686;28;20405;-72
2021/01/05 12:47:35;;;;;;;8.55;6.57;;;4.80;99.90;;;;;;4981562;28;20532;-72
2021/01/05 12:50:03;;;;;;;7.93;6.33;;;4.90;99.90;;;;;;4983690;28;20486;-73
2021/01/05 12:52:29;;;;;;;6.95;5.50;;;4.90;99.90;;;;;;4984081;28;20430;-72
2021/01/05 12:54:55;;;;;;;6.38;5.05;;;5.00;99.90;;;;;;4983811;28;20394;-72
2021/01/05 12:57:21;;;;;;;7.23;5.23;;;5.00;99.90;;;;;;4979492;28;20465;-74
2021/01/05 12:59:47;;;;;;;6.95;5.20;;;4.90;99.90;;;;;;4978583;28;20415;-73
2021/01/05 13:02:16;;;;;;;7.07;5.22;;;4.90;99.90;;;;;;4979045;28;20408;-73
2021/01/05 13:04:42;;;;;;;6.72;4.95;;;5.00;99.90;;;;;;4980223;28;20417;-73